Weather Models
Both GFS & NAM
00z 06z 12z 18z
24hr Precip
00z 06z 12z 18z
36hr Simulated radar
00z 06z 12z 18z
SKEWT Soundings
00z 12z
Current Conditions (Updated 10:00am on 8/23/19)
Temperature
 71°
-1.07
80°  
71°  
0
10
20
30
40
50
60
70
80
90
100
Dew Point
55°
73°  
55°  
-20
-10
0
10
20
30
40
50
60
70
80
Heat Index
73°
84°  
73°  
30
40
50
60
70
80
90
100
110
120
130
Heat Index
Humidity
58%
82% 
57% 
0
10
20
30
40
50
60
70
80
90
100
Barometer
30.04
   Rising
30.04  
29.93  
28.00
28.30
28.60
28.90
29.20
29.50
29.80
30.10
30.40
30.70
31.00
Temperature
Dew Point
Humidity
Pressure
Wind
9mph
ENE
Daily Rain
.00
.05
.10
.15
.20
.25
.30
.35
.40
.45
.50
Rain Today
 0.00" 
Month Rain
0.00
1.00
2.00
3.00
4.00
5.00
6.00
7.00
8.00
9.00
10.00
Month Rain
 5.42" 
Year Rain
0.00
5.00
10.00
15.00
20.00
25.00
30.00
35.00
40.00
45.00
50.00
Year Rain
 39.93" 
Sun & Moon Data
Sunrise 6:21am
Sunset 7:48pm
Moonrise ---
Moonset 1:54pm
Moon % 51%
Other Rain Data
Past Hour 0.00 Past 24 Hours 0.00
Past 3 Hours 0.00 Past 7 Days 2.40
Past 6 Hours 0.00
Cloud Height
3874


Current Front Map
Current Satellite map
7 Day Forecast
NWS Forecast for Philadelphia PA
National Weather Service Forecast for: Philadelphia PA
Issued by: National Weather Service Philadelphia, PA
Updated: 6:40 am EDT Aug 23, 2019

Philadelphia
 
Today

Today: Showers likely, mainly before 5pm.  Cloudy, with a high near 78. North wind 3 to 8 mph.  Chance of precipitation is 60%. New precipitation amounts of less than a tenth of an inch possible.
Showers
Likely

Tonight

Tonight: A chance of showers before 7pm.  Mostly cloudy, with a low around 63. North wind 3 to 8 mph.  Chance of precipitation is 30%. New precipitation amounts of less than a tenth of an inch possible.
Chance
Showers then
Partly Cloudy
Saturday

Saturday: Mostly sunny, with a high near 80. Northeast wind 8 to 10 mph.
Mostly Sunny

Saturday
Night
Saturday Night: Partly cloudy, with a low around 63. Northeast wind around 6 mph.
Partly Cloudy

Sunday

Sunday: A slight chance of showers after 2pm.  Mostly sunny, with a high near 78. Northeast wind 9 to 11 mph, with gusts as high as 21 mph.  Chance of precipitation is 20%.
Mostly Sunny
then Slight
Chance
Showers
Sunday
Night
Sunday Night: A slight chance of showers before 2am.  Partly cloudy, with a low around 62. Chance of precipitation is 20%.
Slight Chance
Showers

Monday

Monday: Partly sunny, with a high near 77.
Partly Sunny

Monday
Night
Monday Night: Mostly cloudy, with a low around 64.
Mostly Cloudy

Tuesday

Tuesday: A chance of showers before 2pm.  Partly sunny, with a high near 83. Chance of precipitation is 30%.
Chance
Showers

Hi 78 °F Lo 63 °F Hi 80 °F Lo 63 °F Hi 78 °F Lo 62 °F Hi 77 °F Lo 64 °F Hi 83 °F

 

Today
 
Showers likely, mainly before 5pm. Cloudy, with a high near 78. North wind 3 to 8 mph. Chance of precipitation is 60%. New precipitation amounts of less than a tenth of an inch possible.
Tonight
 
A chance of showers before 7pm. Mostly cloudy, with a low around 63. North wind 3 to 8 mph. Chance of precipitation is 30%. New precipitation amounts of less than a tenth of an inch possible.
Saturday
 
Mostly sunny, with a high near 80. Northeast wind 8 to 10 mph.
Saturday Night
 
Partly cloudy, with a low around 63. Northeast wind around 6 mph.
Sunday
 
A slight chance of showers after 2pm. Mostly sunny, with a high near 78. Northeast wind 9 to 11 mph, with gusts as high as 21 mph. Chance of precipitation is 20%.
Sunday Night
 
A slight chance of showers before 2am. Partly cloudy, with a low around 62. Chance of precipitation is 20%.
Monday
 
Partly sunny, with a high near 77.
Monday Night
 
Mostly cloudy, with a low around 64.
Tuesday
 
A chance of showers before 2pm. Partly sunny, with a high near 83. Chance of precipitation is 30%.
Tuesday Night
 
A chance of showers after 2am. Mostly cloudy, with a low around 69. Chance of precipitation is 30%.
Wednesday
 
A chance of showers. Partly sunny, with a high near 87. Chance of precipitation is 40%.
Wednesday Night
 
A chance of showers. Mostly cloudy, with a low around 68. Chance of precipitation is 30%.
Thursday
 
Mostly sunny, with a high near 86.

 

Forecast from NOAA-NWS for Philadelphia PA.

Area Weather Current Conditions
Nearby METAR Reports

KPHL - Philadelphia, Pennsylvania
Updated: Fri, 23-Aug-2019 9:54am EDT
Overcast
Overcast
 Wind from N
Wind: N 14 mph , 22 km/h
Temperature: 70°F , 21°C
Dew Point: 57°F , 14°C
Humidity: 64%
Barometer: 30.03 inHg , 1016.9 hPa
Clouds: Overcast
Visibility: 10 miles , 16 km
Cloud details: Mostly Cloudy 3600 ft
Mostly Cloudy 5000 ft
Overcast 8000 ft
2019/08/23 13:54 KPHL 231354Z 01012KT 10SM BKN036 BKN050 OVC080 21/14 A3003 RMK AO2 SLP170 T02110139
KMPO - Mt. Pocono, Pennsylvania
Updated: Fri, 23-Aug-2019 9:53am EDT
Overcast
Overcast
 Wind from N
Wind: N 6 mph , 9 km/h
Temperature: 63°F , 17°C
Dew Point: 52°F , 11°C
Humidity: 68%
Barometer: 30.07 inHg , 1018.3 hPa
Clouds: Overcast
Visibility: 10 miles , 16 km
Cloud details: Overcast 9000 ft
2019/08/23 13:53 KMPO 231353Z AUTO 35005KT 10SM OVC090 17/11 A3007 RMK AO2 SLP174 T01720111
 
KACY - Atlantic City, New Jersey
Updated: Fri, 23-Aug-2019 9:54am EDT
Mostly Cloudy
Mostly Cloudy
 Wind from N
Wind: N 14 mph , 22 km/h, Gust: 20 mph , 31 km/h
Temperature: 73°F , 23°C
Dew Point: 61°F , 16°C
Humidity: 65%
Barometer: 30.00 inHg , 1015.9 hPa
Clouds: Mostly Cloudy
Visibility: 10 miles , 16 km
Cloud details: Mostly Cloudy 2600 ft
Mostly Cloudy 8000 ft
2019/08/23 13:54 KACY 231354Z 01012G17KT 10SM BKN026 BKN080 23/16 A3000 RMK AO2 SLP157 T02330161
KMIV - Millville, New Jersey
Updated: Fri, 23-Aug-2019 8:32am EDT
NOT Current
Overcast
Overcast
 Wind from NE
Wind: NE 16 mph , 26 km/h, Gust: 22 mph , 35 km/h
Temperature: 73°F , 23°C
Dew Point: 66°F , 19°C
Humidity: 78%
Barometer: 29.99 inHg , 1015.6 hPa
Clouds: Overcast
Visibility: 10 miles , 16 km
Cloud details: Partly Cloudy 1100 ft
Mostly Cloudy 1700 ft
Overcast 3300 ft
2019/08/23 12:32 KMIV 231232Z AUTO 04014G19KT 10SM SCT011 BKN017 OVC033 23/19 A2999 RMK AO2 T02280194
 
KWWD - Wildwood, New Jersey
Updated: Fri, 23-Aug-2019 9:56am EDT
Overcast
Overcast
 Wind from NE
Wind: NE 9 mph , 15 km/h
Temperature: 75°F , 24°C
Dew Point: 72°F , 22°C
Humidity: 89%
Barometer: 29.99 inHg , 1015.6 hPa
Clouds: Overcast
Visibility: 10 miles , 16 km
Cloud details: Partly Cloudy 1100 ft
Overcast 1500 ft
2019/08/23 13:56 KWWD 231356Z AUTO 04008KT 10SM SCT011 OVC015 24/22 A2999 RMK AO2 SLP158 T02390217
KDOV - Dover Afb, Delaware
Updated: Fri, 23-Aug-2019 9:56am EDT
Overcast
Overcast
 Wind from NNE
Wind: NNE 16 mph , 26 km/h
Temperature: 73°F , 23°C
Dew Point: 63°F , 17°C
Humidity: 69%
Barometer: 30.00 inHg , 1015.9 hPa
Clouds: Overcast
Visibility: 10 miles , 16 km
Cloud details: Partly Cloudy 1500 ft
Overcast 2500 ft
2019/08/23 13:56 KDOV 231356Z AUTO 02014KT 10SM SCT015 OVC025 23/17 A3000 RMK AO2 CIG 015 RWY19 SLP162 T02290169 $
Severe Weather Map